VTBD/DMK METAR and TAF weather

Enter ICAO airport designator
Station Type Date Time Source
VTBD METAR 2020/07/06 20:00 UTC NOAA

VTBD 062000Z 15002KT 9999 FEW020 SCT030 28/27 Q1006 NOSIG


Station Type Date Time Source
VTBD Decoded METAR 2020/07/06 20:00 UTC NOAA

Don Muang, Thailand (VTBD) 13-55N 100-36E 12M
Jul 06, 2020 - 04:00 PM EDT / 2020.07.06 2000 UTC
Wind: from the SSE (150 degrees) at 2 MPH (2 KT):0
Visibility: greater than 7 mile(s):0
Sky conditions: partly cloudy
Temperature: 82 F (28 C)
Dew Point: 80 F (27 C)
Relative Humidity: 94%
Pressure (altimeter): 29.71 in. Hg (1006 hPa)
ob: VTBD 062000Z 15002KT 9999 FEW020 SCT030 28/27 Q1006 NOSIG
cycle: 20

Station Type Date Time Source
VTBD TAF 2020/07/06 18:36 UTC NOAA

TAF TAF VTBD 061700Z 0618/0724 20005KT 9999 FEW020 SCT100
BECMG 0621/0623 13005KT
BECMG 0702/0704 21008KT
TEMPO 0708/0714 20010G25KT 4000 TSRA FEW018CB SCT030 BKN080

Example: see airport list